sensor_id;sensor_type;location;lat;lon;timestamp;P1;durP1;ratioP1;P2;durP2;ratioP2
12451;SDS011;6291;48.924;12.204;2022-09-23T00:01:00;5.68;;;5.13;;
12451;SDS011;6291;48.924;12.204;2022-09-23T00:06:05;6.17;;;5.57;;
12451;SDS011;6291;48.924;12.204;2022-09-23T00:11:13;7.27;;;6.40;;
12451;SDS011;6291;48.924;12.204;2022-09-23T00:16:18;6.87;;;6.17;;
12451;SDS011;6291;48.924;12.204;2022-09-23T00:21:23;7.27;;;6.40;;
12451;SDS011;6291;48.924;12.204;2022-09-23T00:26:28;6.90;;;6.20;;
12451;SDS011;6291;48.924;12.204;2022-09-23T00:31:31;7.20;;;6.18;;
12451;SDS011;6291;48.924;12.204;2022-09-23T00:36:35;8.50;;;6.80;;
12451;SDS011;6291;48.924;12.204;2022-09-23T00:41:40;11.45;;;8.35;;
12451;SDS011;6291;48.924;12.204;2022-09-23T00:46:43;13.10;;;9.43;;
12451;SDS011;6291;48.924;12.204;2022-09-23T00:51:47;12.20;;;9.38;;
12451;SDS011;6291;48.924;12.204;2022-09-23T00:56:56;12.07;;;9.13;;
12451;SDS011;6291;48.924;12.204;2022-09-23T01:02:02;12.80;;;9.75;;
12451;SDS011;6291;48.924;12.204;2022-09-23T01:07:06;10.73;;;8.93;;
12451;SDS011;6291;48.924;12.204;2022-09-23T01:12:13;10.38;;;8.32;;
12451;SDS011;6291;48.924;12.204;2022-09-23T01:17:25;9.43;;;7.85;;
12451;SDS011;6291;48.924;12.204;2022-09-23T01:22:41;8.80;;;7.10;;
12451;SDS011;6291;48.924;12.204;2022-09-23T01:27:54;7.57;;;6.50;;
12451;SDS011;6291;48.924;12.204;2022-09-23T01:33:17;7.23;;;6.53;;
12451;SDS011;6291;48.924;12.204;2022-09-23T01:38:29;6.60;;;5.82;;
12451;SDS011;6291;48.924;12.204;2022-09-23T01:43:39;6.30;;;5.10;;
12451;SDS011;6291;48.924;12.204;2022-09-23T01:48:50;6.22;;;5.22;;
12451;SDS011;6291;48.924;12.204;2022-09-23T01:54:02;6.95;;;5.82;;
12451;SDS011;6291;48.924;12.204;2022-09-23T01:59:10;5.60;;;5.10;;
12451;SDS011;6291;48.924;12.204;2022-09-23T02:04:19;5.80;;;5.23;;
12451;SDS011;6291;48.924;12.204;2022-09-23T02:09:27;6.03;;;5.43;;
12451;SDS011;6291;48.924;12.204;2022-09-23T02:14:37;5.83;;;5.30;;
12451;SDS011;6291;48.924;12.204;2022-09-23T02:19:51;6.33;;;5.70;;
12451;SDS011;6291;48.924;12.204;2022-09-23T02:24:56;6.23;;;5.63;;
12451;SDS011;6291;48.924;12.204;2022-09-23T02:30:01;7.10;;;6.05;;
12451;SDS011;6291;48.924;12.204;2022-09-23T02:35:12;6.68;;;6.00;;
12451;SDS011;6291;48.924;12.204;2022-09-23T02:40:20;7.23;;;6.53;;
12451;SDS011;6291;48.924;12.204;2022-09-23T02:45:26;6.32;;;5.82;;
12451;SDS011;6291;48.924;12.204;2022-09-23T02:50:31;6.40;;;5.65;;
12451;SDS011;6291;48.924;12.204;2022-09-23T02:55:35;6.20;;;5.60;;
12451;SDS011;6291;48.924;12.204;2022-09-23T03:00:41;6.90;;;6.20;;
12451;SDS011;6291;48.924;12.204;2022-09-23T03:05:56;6.25;;;5.65;;
12451;SDS011;6291;48.924;12.204;2022-09-23T03:11:04;5.97;;;5.38;;
12451;SDS011;6291;48.924;12.204;2022-09-23T03:16:10;6.63;;;6.00;;
12451;SDS011;6291;48.924;12.204;2022-09-23T03:21:21;7.72;;;6.60;;
12451;SDS011;6291;48.924;12.204;2022-09-23T03:26:29;6.53;;;5.90;;
12451;SDS011;6291;48.924;12.204;2022-09-23T03:31:35;6.17;;;5.57;;
12451;SDS011;6291;48.924;12.204;2022-09-23T03:36:45;6.60;;;6.00;;
12451;SDS011;6291;48.924;12.204;2022-09-23T03:41:54;6.45;;;5.85;;
12451;SDS011;6291;48.924;12.204;2022-09-23T03:47:00;8.20;;;7.22;;
12451;SDS011;6291;48.924;12.204;2022-09-23T03:52:06;8.77;;;7.20;;
12451;SDS011;6291;48.924;12.204;2022-09-23T03:57:10;6.95;;;6.25;;
12451;SDS011;6291;48.924;12.204;2022-09-23T04:02:13;7.13;;;6.53;;
12451;SDS011;6291;48.924;12.204;2022-09-23T04:07:18;6.70;;;6.10;;
12451;SDS011;6291;48.924;12.204;2022-09-23T04:12:22;6.88;;;6.18;;
12451;SDS011;6291;48.924;12.204;2022-09-23T04:17:25;5.88;;;5.30;;
12451;SDS011;6291;48.924;12.204;2022-09-23T04:22:31;6.10;;;5.50;;
12451;SDS011;6291;48.924;12.204;2022-09-23T04:27:34;6.17;;;5.57;;
12451;SDS011;6291;48.924;12.204;2022-09-23T04:32:38;6.45;;;5.85;;
12451;SDS011;6291;48.924;12.204;2022-09-23T04:37:43;6.93;;;5.90;;
12451;SDS011;6291;48.924;12.204;2022-09-23T04:42:49;5.70;;;5.20;;
12451;SDS011;6291;48.924;12.204;2022-09-23T04:47:53;6.22;;;5.40;;
12451;SDS011;6291;48.924;12.204;2022-09-23T04:53:00;6.22;;;5.63;;
12451;SDS011;6291;48.924;12.204;2022-09-23T04:58:03;5.72;;;5.18;;
12451;SDS011;6291;48.924;12.204;2022-09-23T05:03:07;6.20;;;5.60;;
12451;SDS011;6291;48.924;12.204;2022-09-23T05:08:13;5.68;;;5.18;;
12451;SDS011;6291;48.924;12.204;2022-09-23T05:13:16;5.97;;;5.47;;
12451;SDS011;6291;48.924;12.204;2022-09-23T05:18:20;5.72;;;5.22;;
12451;SDS011;6291;48.924;12.204;2022-09-23T05:23:24;6.00;;;5.47;;
12451;SDS011;6291;48.924;12.204;2022-09-23T05:28:28;6.60;;;6.00;;
12451;SDS011;6291;48.924;12.204;2022-09-23T05:33:33;6.63;;;6.03;;
12451;SDS011;6291;48.924;12.204;2022-09-23T05:38:39;6.90;;;6.30;;
12451;SDS011;6291;48.924;12.204;2022-09-23T05:43:42;4.97;;;4.50;;
12451;SDS011;6291;48.924;12.204;2022-09-23T05:48:46;4.40;;;3.85;;
12451;SDS011;6291;48.924;12.204;2022-09-23T05:53:51;3.83;;;3.50;;
12451;SDS011;6291;48.924;12.204;2022-09-23T05:58:56;3.80;;;3.50;;
12451;SDS011;6291;48.924;12.204;2022-09-23T06:04:01;3.38;;;3.08;;
12451;SDS011;6291;48.924;12.204;2022-09-23T06:09:08;3.92;;;3.10;;
12451;SDS011;6291;48.924;12.204;2022-09-23T06:14:13;3.70;;;3.35;;
12451;SDS011;6291;48.924;12.204;2022-09-23T06:19:17;3.38;;;2.95;;
12451;SDS011;6291;48.924;12.204;2022-09-23T06:24:21;3.25;;;2.90;;
12451;SDS011;6291;48.924;12.204;2022-09-23T06:29:31;2.97;;;2.78;;
12451;SDS011;6291;48.924;12.204;2022-09-23T06:34:35;5.20;;;3.03;;
12451;SDS011;6291;48.924;12.204;2022-09-23T06:39:53;4.83;;;3.00;;
12451;SDS011;6291;48.924;12.204;2022-09-23T06:44:57;3.30;;;2.90;;
12451;SDS011;6291;48.924;12.204;2022-09-23T06:50:02;3.10;;;2.58;;
12451;SDS011;6291;48.924;12.204;2022-09-23T06:55:08;3.20;;;2.90;;
12451;SDS011;6291;48.924;12.204;2022-09-23T07:00:12;3.53;;;3.00;;
12451;SDS011;6291;48.924;12.204;2022-09-23T07:05:15;3.58;;;3.28;;
12451;SDS011;6291;48.924;12.204;2022-09-23T07:10:20;3.53;;;3.08;;
12451;SDS011;6291;48.924;12.204;2022-09-23T07:15:23;3.25;;;2.95;;
12451;SDS011;6291;48.924;12.204;2022-09-23T07:20:27;3.60;;;3.23;;
12451;SDS011;6291;48.924;12.204;2022-09-23T07:25:31;3.58;;;3.10;;
12451;SDS011;6291;48.924;12.204;2022-09-23T07:30:35;4.38;;;2.85;;
12451;SDS011;6291;48.924;12.204;2022-09-23T07:35:40;3.00;;;2.70;;
12451;SDS011;6291;48.924;12.204;2022-09-23T07:40:45;3.33;;;2.80;;
12451;SDS011;6291;48.924;12.204;2022-09-23T07:45:49;3.20;;;2.90;;
12451;SDS011;6291;48.924;12.204;2022-09-23T07:50:53;3.63;;;3.33;;
12451;SDS011;6291;48.924;12.204;2022-09-23T07:55:57;2.95;;;2.70;;
12451;SDS011;6291;48.924;12.204;2022-09-23T08:01:01;4.22;;;2.78;;
12451;SDS011;6291;48.924;12.204;2022-09-23T08:06:07;3.67;;;3.00;;
12451;SDS011;6291;48.924;12.204;2022-09-23T08:11:13;4.63;;;3.20;;
12451;SDS011;6291;48.924;12.204;2022-09-23T08:16:17;3.53;;;3.15;;
12451;SDS011;6291;48.924;12.204;2022-09-23T08:21:20;2.78;;;2.58;;
12451;SDS011;6291;48.924;12.204;2022-09-23T08:26:26;2.53;;;2.33;;
12451;SDS011;6291;48.924;12.204;2022-09-23T08:31:31;2.90;;;2.60;;
12451;SDS011;6291;48.924;12.204;2022-09-23T08:36:34;3.28;;;2.40;;
12451;SDS011;6291;48.924;12.204;2022-09-23T08:41:41;2.50;;;1.98;;
12451;SDS011;6291;48.924;12.204;2022-09-23T08:46:58;2.30;;;2.10;;
12451;SDS011;6291;48.924;12.204;2022-09-23T08:52:10;2.40;;;2.20;;
12451;SDS011;6291;48.924;12.204;2022-09-23T08:57:22;2.40;;;2.20;;
12451;SDS011;6291;48.924;12.204;2022-09-23T09:02:33;2.40;;;2.05;;
12451;SDS011;6291;48.924;12.204;2022-09-23T09:07:38;2.67;;;2.47;;
12451;SDS011;6291;48.924;12.204;2022-09-23T09:12:45;2.30;;;2.10;;
12451;SDS011;6291;48.924;12.204;2022-09-23T09:17:54;2.55;;;2.35;;
12451;SDS011;6291;48.924;12.204;2022-09-23T09:23:03;2.20;;;2.00;;
12451;SDS011;6291;48.924;12.204;2022-09-23T09:28:19;2.40;;;2.20;;
12451;SDS011;6291;48.924;12.204;2022-09-23T09:33:27;2.40;;;2.22;;
12451;SDS011;6291;48.924;12.204;2022-09-23T09:38:41;2.40;;;2.20;;
12451;SDS011;6291;48.924;12.204;2022-09-23T09:43:46;2.83;;;2.25;;
12451;SDS011;6291;48.924;12.204;2022-09-23T09:49:01;3.20;;;2.47;;
12451;SDS011;6291;48.924;12.204;2022-09-23T09:54:14;2.58;;;2.38;;
12451;SDS011;6291;48.924;12.204;2022-09-23T09:59:25;2.53;;;2.23;;
12451;SDS011;6291;48.924;12.204;2022-09-23T10:04:32;2.85;;;2.30;;
12451;SDS011;6291;48.924;12.204;2022-09-23T10:09:37;1.85;;;1.75;;
12451;SDS011;6291;48.924;12.204;2022-09-23T10:14:45;2.60;;;2.40;;
12451;SDS011;6291;48.924;12.204;2022-09-23T10:19:53;1.98;;;1.88;;
12451;SDS011;6291;48.924;12.204;2022-09-23T10:25:01;2.47;;;2.28;;
12451;SDS011;6291;48.924;12.204;2022-09-23T10:30:18;1.92;;;1.83;;
12451;SDS011;6291;48.924;12.204;2022-09-23T10:35:23;2.30;;;2.10;;
12451;SDS011;6291;48.924;12.204;2022-09-23T10:40:28;3.05;;;2.25;;
12451;SDS011;6291;48.924;12.204;2022-09-23T10:45:53;3.13;;;2.13;;
12451;SDS011;6291;48.924;12.204;2022-09-23T10:51:21;2.03;;;1.85;;
12451;SDS011;6291;48.924;12.204;2022-09-23T10:56:30;2.50;;;2.30;;
12451;SDS011;6291;48.924;12.204;2022-09-23T11:01:39;2.60;;;1.88;;
12451;SDS011;6291;48.924;12.204;2022-09-23T11:12:25;2.00;;;1.80;;
12451;SDS011;6291;48.924;12.204;2022-09-23T11:17:43;1.60;;;1.40;;
12451;SDS011;6291;48.924;12.204;2022-09-23T11:29:05;2.50;;;1.97;;
12451;SDS011;6291;48.924;12.204;2022-09-23T11:34:27;1.67;;;1.57;;
12451;SDS011;6291;48.924;12.204;2022-09-23T11:39:43;1.73;;;1.43;;
12451;SDS011;6291;48.924;12.204;2022-09-23T11:44:51;2.30;;;1.43;;
12451;SDS011;6291;48.924;12.204;2022-09-23T11:50:01;1.50;;;1.40;;
12451;SDS011;6291;48.924;12.204;2022-09-23T11:55:10;2.03;;;1.83;;
12451;SDS011;6291;48.924;12.204;2022-09-23T12:00:24;1.37;;;1.27;;
12451;SDS011;6291;48.924;12.204;2022-09-23T12:05:32;1.52;;;1.33;;
12451;SDS011;6291;48.924;12.204;2022-09-23T12:10:42;2.40;;;1.50;;
12451;SDS011;6291;48.924;12.204;2022-09-23T12:15:56;2.22;;;1.40;;
12451;SDS011;6291;48.924;12.204;2022-09-23T12:21:22;1.45;;;1.20;;
12451;SDS011;6291;48.924;12.204;2022-09-23T12:26:54;1.55;;;1.40;;
12451;SDS011;6291;48.924;12.204;2022-09-23T12:32:00;1.60;;;1.50;;
12451;SDS011;6291;48.924;12.204;2022-09-23T12:37:09;1.70;;;1.58;;
12451;SDS011;6291;48.924;12.204;2022-09-23T12:42:13;3.47;;;2.10;;
12451;SDS011;6291;48.924;12.204;2022-09-23T12:47:29;3.90;;;2.00;;
12451;SDS011;6291;48.924;12.204;2022-09-23T12:52:41;2.05;;;1.83;;
12451;SDS011;6291;48.924;12.204;2022-09-23T12:57:44;2.13;;;1.65;;
12451;SDS011;6291;48.924;12.204;2022-09-23T13:02:52;3.10;;;1.90;;
12451;SDS011;6291;48.924;12.204;2022-09-23T13:08:18;1.80;;;1.40;;
12451;SDS011;6291;48.924;12.204;2022-09-23T13:13:25;1.93;;;1.70;;
12451;SDS011;6291;48.924;12.204;2022-09-23T13:29:22;1.73;;;1.20;;
12451;SDS011;6291;48.924;12.204;2022-09-23T13:34:29;1.60;;;1.30;;
12451;SDS011;6291;48.924;12.204;2022-09-23T13:39:35;1.60;;;1.42;;
12451;SDS011;6291;48.924;12.204;2022-09-23T13:44:38;1.70;;;1.50;;
12451;SDS011;6291;48.924;12.204;2022-09-23T13:49:42;2.33;;;1.33;;
12451;SDS011;6291;48.924;12.204;2022-09-23T13:54:49;1.40;;;1.30;;
12451;SDS011;6291;48.924;12.204;2022-09-23T13:59:53;1.58;;;1.48;;
12451;SDS011;6291;48.924;12.204;2022-09-23T14:04:56;1.25;;;1.15;;
12451;SDS011;6291;48.924;12.204;2022-09-23T14:10:01;1.83;;;1.30;;
12451;SDS011;6291;48.924;12.204;2022-09-23T14:15:11;2.13;;;1.92;;
12451;SDS011;6291;48.924;12.204;2022-09-23T14:20:16;2.30;;;1.52;;
12451;SDS011;6291;48.924;12.204;2022-09-23T14:25:23;1.30;;;1.15;;
12451;SDS011;6291;48.924;12.204;2022-09-23T14:30:27;2.13;;;1.38;;
12451;SDS011;6291;48.924;12.204;2022-09-23T14:35:37;1.60;;;1.10;;
12451;SDS011;6291;48.924;12.204;2022-09-23T14:40:53;2.70;;;1.58;;
12451;SDS011;6291;48.924;12.204;2022-09-23T14:46:16;2.40;;;1.50;;
12451;SDS011;6291;48.924;12.204;2022-09-23T14:51:20;1.40;;;1.30;;
12451;SDS011;6291;48.924;12.204;2022-09-23T14:56:32;1.63;;;1.40;;
12451;SDS011;6291;48.924;12.204;2022-09-23T15:01:43;1.73;;;1.20;;
12451;SDS011;6291;48.924;12.204;2022-09-23T15:06:49;2.80;;;1.20;;
12451;SDS011;6291;48.924;12.204;2022-09-23T15:12:00;2.97;;;1.40;;
12451;SDS011;6291;48.924;12.204;2022-09-23T15:17:11;1.58;;;1.48;;
12451;SDS011;6291;48.924;12.204;2022-09-23T15:22:19;1.30;;;1.20;;
12451;SDS011;6291;48.924;12.204;2022-09-23T15:27:31;1.53;;;1.30;;
12451;SDS011;6291;48.924;12.204;2022-09-23T15:32:37;3.00;;;1.50;;
12451;SDS011;6291;48.924;12.204;2022-09-23T15:37:41;2.67;;;1.65;;
12451;SDS011;6291;48.924;12.204;2022-09-23T15:42:45;3.40;;;1.63;;
12451;SDS011;6291;48.924;12.204;2022-09-23T15:47:52;4.10;;;2.40;;
12451;SDS011;6291;48.924;12.204;2022-09-23T15:52:56;5.28;;;1.90;;
12451;SDS011;6291;48.924;12.204;2022-09-23T15:58:01;3.83;;;2.33;;
12451;SDS011;6291;48.924;12.204;2022-09-23T16:03:04;4.65;;;2.30;;
12451;SDS011;6291;48.924;12.204;2022-09-23T16:08:08;4.60;;;2.70;;
12451;SDS011;6291;48.924;12.204;2022-09-23T16:13:13;3.60;;;2.00;;
12451;SDS011;6291;48.924;12.204;2022-09-23T16:18:17;2.20;;;2.00;;
12451;SDS011;6291;48.924;12.204;2022-09-23T16:23:21;5.03;;;2.90;;
12451;SDS011;6291;48.924;12.204;2022-09-23T16:28:36;8.73;;;4.35;;
12451;SDS011;6291;48.924;12.204;2022-09-23T16:33:39;7.38;;;4.05;;
12451;SDS011;6291;48.924;12.204;2022-09-23T16:38:43;10.70;;;7.30;;
12451;SDS011;6291;48.924;12.204;2022-09-23T16:43:49;8.07;;;4.70;;
12451;SDS011;6291;48.924;12.204;2022-09-23T16:48:52;5.75;;;3.60;;
12451;SDS011;6291;48.924;12.204;2022-09-23T16:53:56;4.60;;;3.50;;
12451;SDS011;6291;48.924;12.204;2022-09-23T16:59:02;5.80;;;5.20;;
12451;SDS011;6291;48.924;12.204;2022-09-23T17:04:05;6.35;;;5.35;;
12451;SDS011;6291;48.924;12.204;2022-09-23T17:09:11;6.03;;;4.28;;
12451;SDS011;6291;48.924;12.204;2022-09-23T17:14:15;6.28;;;4.22;;
12451;SDS011;6291;48.924;12.204;2022-09-23T17:19:18;6.68;;;4.38;;
12451;SDS011;6291;48.924;12.204;2022-09-23T17:24:22;5.43;;;4.28;;
12451;SDS011;6291;48.924;12.204;2022-09-23T17:29:27;7.07;;;4.78;;
12451;SDS011;6291;48.924;12.204;2022-09-23T17:34:30;4.95;;;4.22;;
12451;SDS011;6291;48.924;12.204;2022-09-23T17:39:33;6.25;;;4.38;;
12451;SDS011;6291;48.924;12.204;2022-09-23T17:44:38;6.13;;;5.10;;
12451;SDS011;6291;48.924;12.204;2022-09-23T17:49:42;7.25;;;5.78;;
12451;SDS011;6291;48.924;12.204;2022-09-23T17:54:47;7.43;;;6.68;;
12451;SDS011;6291;48.924;12.204;2022-09-23T17:59:52;10.20;;;7.82;;
12451;SDS011;6291;48.924;12.204;2022-09-23T18:04:56;8.27;;;7.47;;
12451;SDS011;6291;48.924;12.204;2022-09-23T18:09:59;11.33;;;8.97;;
12451;SDS011;6291;48.924;12.204;2022-09-23T18:15:07;10.27;;;8.98;;
12451;SDS011;6291;48.924;12.204;2022-09-23T18:20:10;11.32;;;9.05;;
12451;SDS011;6291;48.924;12.204;2022-09-23T18:25:13;18.73;;;15.40;;
12451;SDS011;6291;48.924;12.204;2022-09-23T18:30:38;23.70;;;19.38;;
12451;SDS011;6291;48.924;12.204;2022-09-23T18:35:44;19.00;;;15.82;;
12451;SDS011;6291;48.924;12.204;2022-09-23T18:40:48;17.07;;;14.00;;
12451;SDS011;6291;48.924;12.204;2022-09-23T18:45:56;17.13;;;14.77;;
12451;SDS011;6291;48.924;12.204;2022-09-23T18:51:01;17.75;;;14.98;;
12451;SDS011;6291;48.924;12.204;2022-09-23T18:56:05;20.40;;;17.63;;
12451;SDS011;6291;48.924;12.204;2022-09-23T19:01:10;21.30;;;18.27;;
12451;SDS011;6291;48.924;12.204;2022-09-23T19:06:14;16.97;;;15.17;;
12451;SDS011;6291;48.924;12.204;2022-09-23T19:11:21;13.47;;;10.60;;
12451;SDS011;6291;48.924;12.204;2022-09-23T19:16:27;12.00;;;9.50;;
12451;SDS011;6291;48.924;12.204;2022-09-23T19:21:32;14.80;;;10.80;;
12451;SDS011;6291;48.924;12.204;2022-09-23T19:26:36;13.40;;;11.35;;
12451;SDS011;6291;48.924;12.204;2022-09-23T19:31:42;14.27;;;11.30;;
12451;SDS011;6291;48.924;12.204;2022-09-23T19:36:45;16.05;;;11.48;;
12451;SDS011;6291;48.924;12.204;2022-09-23T19:41:50;13.77;;;10.33;;
12451;SDS011;6291;48.924;12.204;2022-09-23T19:46:56;11.00;;;9.90;;
12451;SDS011;6291;48.924;12.204;2022-09-23T19:51:59;11.90;;;10.40;;
12451;SDS011;6291;48.924;12.204;2022-09-23T19:57:03;12.20;;;8.73;;
12451;SDS011;6291;48.924;12.204;2022-09-23T20:02:08;10.32;;;8.57;;
12451;SDS011;6291;48.924;12.204;2022-09-23T20:07:13;10.27;;;8.93;;
12451;SDS011;6291;48.924;12.204;2022-09-23T20:12:16;12.13;;;10.15;;
12451;SDS011;6291;48.924;12.204;2022-09-23T20:17:21;27.05;;;16.42;;
12451;SDS011;6291;48.924;12.204;2022-09-23T20:22:25;28.73;;;17.73;;
12451;SDS011;6291;48.924;12.204;2022-09-23T20:27:33;30.50;;;17.38;;
12451;SDS011;6291;48.924;12.204;2022-09-23T20:32:38;30.60;;;16.60;;
12451;SDS011;6291;48.924;12.204;2022-09-23T20:37:45;28.30;;;16.63;;
12451;SDS011;6291;48.924;12.204;2022-09-23T20:42:48;27.08;;;15.98;;
12451;SDS011;6291;48.924;12.204;2022-09-23T20:47:53;29.88;;;16.00;;
12451;SDS011;6291;48.924;12.204;2022-09-23T20:52:59;31.98;;;18.90;;
12451;SDS011;6291;48.924;12.204;2022-09-23T20:58:02;32.92;;;18.75;;
12451;SDS011;6291;48.924;12.204;2022-09-23T21:03:07;40.88;;;22.52;;
12451;SDS011;6291;48.924;12.204;2022-09-23T21:08:10;63.20;;;31.42;;
12451;SDS011;6291;48.924;12.204;2022-09-23T21:13:14;78.95;;;39.88;;
12451;SDS011;6291;48.924;12.204;2022-09-23T21:18:18;84.18;;;44.03;;
12451;SDS011;6291;48.924;12.204;2022-09-23T21:23:23;75.50;;;40.10;;
12451;SDS011;6291;48.924;12.204;2022-09-23T21:28:30;82.80;;;44.65;;
12451;SDS011;6291;48.924;12.204;2022-09-23T21:33:35;96.70;;;51.83;;
12451;SDS011;6291;48.924;12.204;2022-09-23T21:38:39;130.25;;;64.75;;
12451;SDS011;6291;48.924;12.204;2022-09-23T21:43:42;177.02;;;85.70;;
12451;SDS011;6291;48.924;12.204;2022-09-23T21:48:47;177.95;;;84.78;;
12451;SDS011;6291;48.924;12.204;2022-09-23T21:53:54;137.13;;;66.10;;
12451;SDS011;6291;48.924;12.204;2022-09-23T21:58:58;152.57;;;73.40;;
12451;SDS011;6291;48.924;12.204;2022-09-23T22:04:04;42.17;;;25.65;;
12451;SDS011;6291;48.924;12.204;2022-09-23T22:09:11;23.88;;;15.88;;
12451;SDS011;6291;48.924;12.204;2022-09-23T22:14:20;23.10;;;15.90;;
12451;SDS011;6291;48.924;12.204;2022-09-23T22:19:28;17.23;;;13.20;;
12451;SDS011;6291;48.924;12.204;2022-09-23T22:24:35;19.05;;;14.30;;
12451;SDS011;6291;48.924;12.204;2022-09-23T22:29:39;22.30;;;16.70;;
12451;SDS011;6291;48.924;12.204;2022-09-23T22:35:01;13.63;;;11.38;;
12451;SDS011;6291;48.924;12.204;2022-09-23T22:40:05;12.80;;;11.40;;
12451;SDS011;6291;48.924;12.204;2022-09-23T22:45:11;15.23;;;12.20;;
12451;SDS011;6291;48.924;12.204;2022-09-23T22:50:16;11.93;;;10.65;;
12451;SDS011;6291;48.924;12.204;2022-09-23T22:55:19;10.70;;;9.60;;
12451;SDS011;6291;48.924;12.204;2022-09-23T23:00:22;10.87;;;9.63;;
12451;SDS011;6291;48.924;12.204;2022-09-23T23:05:28;11.35;;;9.63;;
12451;SDS011;6291;48.924;12.204;2022-09-23T23:10:32;10.50;;;9.35;;
12451;SDS011;6291;48.924;12.204;2022-09-23T23:15:38;12.50;;;8.93;;
12451;SDS011;6291;48.924;12.204;2022-09-23T23:20:43;10.05;;;9.05;;
12451;SDS011;6291;48.924;12.204;2022-09-23T23:25:46;9.70;;;8.38;;
12451;SDS011;6291;48.924;12.204;2022-09-23T23:30:49;11.52;;;9.18;;
12451;SDS011;6291;48.924;12.204;2022-09-23T23:35:54;9.68;;;8.68;;
12451;SDS011;6291;48.924;12.204;2022-09-23T23:41:00;17.37;;;11.60;;
12451;SDS011;6291;48.924;12.204;2022-09-23T23:46:03;12.03;;;9.13;;
12451;SDS011;6291;48.924;12.204;2022-09-23T23:51:10;9.25;;;7.50;;
12451;SDS011;6291;48.924;12.204;2022-09-23T23:56:14;8.10;;;7.28;;
